createdAt,value
2022-10-06T00:00:53.427Z,14.97
2022-10-06T00:01:53.442Z,14.97
2022-10-06T00:02:53.462Z,14.97
2022-10-06T00:03:53.382Z,14.97
2022-10-06T00:04:53.368Z,14.97
2022-10-06T00:05:53.355Z,14.97
2022-10-06T00:06:53.340Z,14.97
2022-10-06T00:07:53.329Z,14.94
2022-10-06T00:08:53.313Z,14.94
2022-10-06T00:09:53.300Z,14.94
2022-10-06T00:10:53.310Z,14.97
2022-10-06T00:11:53.275Z,14.97
2022-10-06T00:12:53.259Z,14.97
2022-10-06T00:13:53.248Z,14.97
2022-10-06T00:14:53.233Z,14.97
2022-10-06T00:15:53.255Z,14.94
2022-10-06T00:16:53.207Z,14.94
2022-10-06T00:17:53.195Z,14.97
2022-10-06T00:18:53.180Z,14.97
2022-10-06T00:19:53.169Z,14.97
2022-10-06T00:20:53.153Z,14.97
2022-10-06T00:21:53.143Z,14.98
2022-10-06T00:22:53.129Z,14.98
2022-10-06T00:23:53.119Z,14.98
2022-10-06T00:24:53.099Z,14.97
2022-10-06T00:25:53.089Z,14.97
2022-10-06T00:26:53.100Z,14.97
2022-10-06T00:27:53.062Z,14.98
2022-10-06T00:28:53.048Z,14.97
2022-10-06T00:29:53.034Z,14.97
2022-10-06T00:30:53.050Z,14.98
2022-10-06T00:31:53.007Z,14.94
2022-10-06T00:32:52.999Z,14.98
2022-10-06T00:33:52.980Z,14.98
2022-10-06T00:34:52.975Z,14.97
2022-10-06T00:35:52.955Z,14.98
2022-10-06T00:36:52.942Z,14.97
2022-10-06T00:37:52.929Z,14.97
2022-10-06T00:38:52.916Z,14.97
2022-10-06T00:39:52.901Z,14.98
2022-10-06T00:40:52.890Z,14.98
2022-10-06T00:41:52.874Z,14.97
2022-10-06T00:42:52.886Z,14.97
2022-10-06T00:43:52.851Z,14.97
2022-10-06T00:44:52.837Z,14.98
2022-10-06T00:45:52.895Z,14.97
2022-10-06T00:46:52.811Z,14.98
2022-10-06T00:47:52.797Z,14.98
2022-10-06T00:48:52.784Z,14.94
2022-10-06T00:49:52.769Z,14.97
2022-10-06T00:50:52.757Z,14.97
2022-10-06T00:51:52.742Z,14.97
2022-10-06T00:52:52.731Z,14.97
2022-10-06T00:53:52.715Z,14.97
2022-10-06T00:54:52.706Z,14.97
2022-10-06T00:55:52.690Z,14.98
2022-10-06T00:56:52.681Z,14.97
2022-10-06T00:57:52.663Z,14.98
2022-10-06T00:58:52.741Z,14.94
2022-10-06T00:59:52.637Z,14.98
2022-10-06T01:00:52.625Z,14.97
2022-10-06T01:01:52.697Z,14.98
2022-10-06T01:02:52.670Z,14.98
2022-10-06T01:03:52.583Z,14.98
2022-10-06T01:04:52.572Z,14.98
2022-10-06T01:05:52.563Z,14.98
2022-10-06T01:06:52.546Z,14.97
2022-10-06T01:07:52.532Z,14.98
2022-10-06T01:08:52.518Z,15.00
2022-10-06T01:09:52.505Z,15.00
2022-10-06T01:10:52.497Z,14.98
2022-10-06T01:11:52.477Z,14.98
2022-10-06T01:12:52.465Z,14.98
2022-10-06T01:13:52.450Z,14.98
2022-10-06T01:14:52.462Z,14.98
2022-10-06T01:15:52.534Z,14.98
2022-10-06T01:16:52.413Z,14.98
2022-10-06T01:17:52.399Z,14.98
2022-10-06T01:18:52.388Z,15.00
2022-10-06T01:19:52.372Z,15.00
2022-10-06T01:20:52.361Z,14.98
2022-10-06T01:21:52.346Z,15.00
2022-10-06T01:22:52.340Z,14.98
2022-10-06T01:23:52.318Z,14.98
2022-10-06T01:24:52.312Z,14.98
2022-10-06T01:25:52.297Z,14.98
2022-10-06T01:26:52.281Z,14.98
2022-10-06T01:27:52.266Z,14.97
2022-10-06T01:28:52.255Z,14.98
2022-10-06T01:29:52.241Z,14.98
2022-10-06T01:30:52.375Z,15.00
2022-10-06T01:31:52.222Z,14.97
2022-10-06T01:32:52.202Z,15.00
2022-10-06T01:33:52.188Z,15.00
2022-10-06T01:34:52.177Z,14.98
2022-10-06T01:35:52.161Z,14.98
2022-10-06T01:36:52.153Z,14.98
2022-10-06T01:37:52.135Z,15.00
2022-10-06T01:38:52.127Z,15.00
2022-10-06T01:39:52.109Z,15.00
2022-10-06T01:40:52.096Z,14.97
2022-10-06T01:41:52.084Z,14.98
2022-10-06T01:42:52.072Z,14.98
2022-10-06T01:43:52.057Z,14.97
2022-10-06T01:44:52.044Z,14.98
2022-10-06T01:45:52.029Z,15.00
2022-10-06T01:46:52.128Z,14.98
2022-10-06T01:47:52.003Z,14.98
2022-10-06T01:48:51.994Z,14.97
2022-10-06T01:49:51.978Z,15.00
2022-10-06T01:50:51.966Z,14.97
2022-10-06T01:51:51.951Z,14.98
2022-10-06T01:52:51.940Z,14.98
2022-10-06T01:53:51.925Z,14.98
2022-10-06T01:54:51.911Z,14.98
2022-10-06T01:55:51.899Z,14.98
2022-10-06T01:56:51.884Z,14.98
2022-10-06T01:57:51.872Z,14.98
2022-10-06T01:58:51.861Z,15.00
2022-10-06T01:59:54.765Z,14.98
2022-10-06T02:00:51.833Z,14.98
2022-10-06T02:01:51.936Z,14.98
2022-10-06T02:02:51.830Z,14.98
2022-10-06T02:03:51.791Z,14.98
2022-10-06T02:04:51.781Z,15.00
2022-10-06T02:05:51.764Z,15.00
2022-10-06T02:06:51.755Z,15.01
2022-10-06T02:07:51.737Z,15.01
2022-10-06T02:08:51.726Z,15.00
2022-10-06T02:09:51.711Z,15.00
2022-10-06T02:10:51.700Z,15.01
2022-10-06T02:11:51.684Z,15.01
2022-10-06T02:12:51.675Z,15.01
2022-10-06T02:13:51.658Z,15.01
2022-10-06T02:14:51.650Z,15.00
2022-10-06T02:15:51.715Z,14.98
2022-10-06T02:16:51.620Z,14.97
2022-10-06T02:17:51.605Z,14.97
2022-10-06T02:18:51.619Z,14.97
2022-10-06T02:19:51.581Z,14.98
2022-10-06T02:20:51.568Z,14.97
2022-10-06T02:21:51.552Z,14.97
2022-10-06T02:22:51.542Z,14.97
2022-10-06T02:23:51.546Z,14.94
2022-10-06T02:24:51.516Z,14.97
2022-10-06T02:25:51.500Z,14.97
2022-10-06T02:26:51.488Z,14.94
2022-10-06T02:27:51.473Z,14.93
2022-10-06T02:28:51.525Z,14.94
2022-10-06T02:29:51.449Z,14.93
2022-10-06T02:30:51.511Z,14.93
2022-10-06T02:31:51.420Z,14.93
2022-10-06T02:32:51.411Z,14.93
2022-10-06T02:33:51.394Z,14.92
2022-10-06T02:34:51.404Z,14.93
2022-10-06T02:35:51.369Z,14.92
2022-10-06T02:36:51.356Z,14.93
2022-10-06T02:37:51.341Z,14.93
2022-10-06T02:38:51.329Z,14.94
2022-10-06T02:39:51.315Z,14.93
2022-10-06T02:40:51.304Z,14.93
2022-10-06T02:41:51.289Z,14.93
2022-10-06T02:42:51.277Z,14.93
2022-10-06T02:43:51.264Z,14.92
2022-10-06T02:44:51.252Z,14.93
2022-10-06T02:45:51.236Z,14.93
2022-10-06T02:46:51.362Z,14.93
2022-10-06T02:47:51.209Z,14.92
2022-10-06T02:48:51.200Z,14.93
2022-10-06T02:49:51.189Z,14.94
2022-10-06T02:50:51.197Z,14.92
2022-10-06T02:51:51.157Z,14.93
2022-10-06T02:52:51.145Z,14.92
2022-10-06T02:53:51.131Z,14.92
2022-10-06T02:54:51.122Z,14.92
2022-10-06T02:55:51.104Z,14.90
2022-10-06T02:56:51.093Z,14.92
2022-10-06T02:57:51.128Z,14.92
2022-10-06T02:58:51.069Z,14.93
2022-10-06T02:59:51.054Z,14.92
2022-10-06T03:00:51.042Z,14.90
2022-10-06T03:01:51.147Z,14.92
2022-10-06T03:02:51.039Z,14.90
2022-10-06T03:03:51.000Z,14.90
2022-10-06T03:04:50.989Z,14.92
2022-10-06T03:05:50.974Z,14.90
2022-10-06T03:06:50.984Z,14.90
2022-10-06T03:07:50.946Z,14.89
2022-10-06T03:08:50.933Z,14.90
2022-10-06T03:09:50.919Z,14.89
2022-10-06T03:10:50.909Z,14.90
2022-10-06T03:11:50.898Z,14.89
2022-10-06T03:12:50.883Z,14.87
2022-10-06T03:13:50.872Z,14.90
2022-10-06T03:14:50.854Z,14.89
2022-10-06T03:15:50.921Z,14.90
2022-10-06T03:16:50.835Z,14.87
2022-10-06T03:17:50.812Z,14.87
2022-10-06T03:18:50.805Z,14.89
2022-10-06T03:19:50.786Z,14.89
2022-10-06T03:20:50.776Z,14.89
2022-10-06T03:21:50.760Z,14.87
2022-10-06T03:22:50.776Z,14.89
2022-10-06T03:23:50.733Z,14.90
2022-10-06T03:24:50.724Z,14.89
2022-10-06T03:25:50.710Z,14.89
2022-10-06T03:26:50.695Z,14.89
2022-10-06T03:27:50.682Z,14.89
2022-10-06T03:28:50.669Z,14.87
2022-10-06T03:29:50.658Z,14.89
2022-10-06T03:30:50.643Z,14.87
2022-10-06T03:31:50.662Z,14.87
2022-10-06T03:32:50.617Z,14.89
2022-10-06T03:33:50.601Z,14.87
2022-10-06T03:34:50.590Z,14.87
2022-10-06T03:35:50.575Z,14.86
2022-10-06T03:36:50.563Z,14.87
2022-10-06T03:37:50.550Z,14.87
2022-10-06T03:38:50.561Z,14.87
2022-10-06T03:39:50.522Z,14.86
2022-10-06T03:40:50.509Z,14.87
2022-10-06T03:41:50.496Z,14.87
2022-10-06T03:42:50.484Z,14.87
2022-10-06T03:43:50.469Z,14.86
2022-10-06T03:44:50.457Z,14.87
2022-10-06T03:45:50.443Z,14.87
2022-10-06T03:46:50.499Z,14.87
2022-10-06T03:47:50.416Z,14.87
2022-10-06T03:48:50.405Z,14.87
2022-10-06T03:49:50.391Z,14.87
2022-10-06T03:50:50.379Z,14.86
2022-10-06T03:51:50.363Z,14.86
2022-10-06T03:52:50.350Z,14.86
2022-10-06T03:53:50.339Z,14.86
2022-10-06T03:54:56.385Z,14.86
2022-10-06T03:55:50.310Z,14.87
2022-10-06T03:56:50.299Z,14.87
2022-10-06T03:57:50.286Z,14.86
2022-10-06T03:58:50.271Z,14.87
2022-10-06T03:59:50.258Z,14.86
2022-10-06T04:00:50.295Z,14.87
2022-10-06T04:01:50.270Z,14.87
2022-10-06T04:02:50.219Z,14.86
2022-10-06T04:03:50.205Z,14.86
2022-10-06T04:04:50.192Z,14.87
2022-10-06T04:05:50.178Z,14.87
2022-10-06T04:06:50.165Z,14.86
2022-10-06T04:07:50.150Z,14.87
2022-10-06T04:08:50.142Z,14.87
2022-10-06T04:09:50.125Z,14.87
2022-10-06T04:10:50.137Z,14.87
2022-10-06T04:11:56.103Z,14.87
2022-10-06T04:12:50.121Z,14.86
2022-10-06T04:13:50.071Z,14.86
2022-10-06T04:14:50.059Z,14.86
2022-10-06T04:15:50.045Z,14.86
2022-10-06T04:16:50.033Z,14.86
2022-10-06T04:17:50.018Z,14.86
2022-10-06T04:18:50.006Z,14.86
2022-10-06T04:19:49.994Z,14.86
2022-10-06T04:20:49.980Z,14.85
2022-10-06T04:21:55.970Z,14.86
2022-10-06T04:22:49.954Z,14.86
2022-10-06T04:23:49.941Z,14.86
2022-10-06T04:24:55.932Z,14.87
2022-10-06T04:25:55.161Z,14.86
2022-10-06T04:26:50.963Z,14.86
2022-10-06T04:27:49.885Z,14.85
2022-10-06T04:28:49.928Z,14.85
2022-10-06T04:29:49.859Z,14.85
2022-10-06T04:30:49.849Z,14.86
2022-10-06T04:31:49.943Z,14.86
2022-10-06T04:32:49.823Z,14.85
2022-10-06T04:33:49.808Z,14.85
2022-10-06T04:34:49.797Z,14.85
2022-10-06T04:35:55.785Z,14.85
2022-10-06T04:36:49.768Z,14.85
2022-10-06T04:37:49.754Z,14.83
2022-10-06T04:38:49.743Z,14.85
2022-10-06T04:39:49.728Z,14.83
2022-10-06T04:40:49.717Z,14.83
2022-10-06T04:41:49.700Z,14.83
2022-10-06T04:42:49.715Z,14.85
2022-10-06T04:43:49.676Z,14.85
2022-10-06T04:44:49.663Z,14.83
2022-10-06T04:45:49.704Z,14.83
2022-10-06T04:46:49.689Z,14.85
2022-10-06T04:47:49.623Z,14.83
2022-10-06T04:48:49.609Z,14.85
2022-10-06T04:49:49.597Z,14.89
2022-10-06T04:50:49.581Z,14.90
2022-10-06T04:51:49.944Z,14.89
2022-10-06T04:52:49.555Z,14.89
2022-10-06T04:53:49.542Z,14.90
2022-10-06T04:54:49.529Z,14.87
2022-10-06T04:55:49.517Z,14.80
2022-10-06T04:56:49.502Z,14.75
2022-10-06T04:57:49.492Z,14.77
2022-10-06T04:58:49.500Z,14.77
2022-10-06T04:59:49.464Z,14.77
2022-10-06T05:00:49.527Z,14.80
2022-10-06T05:01:49.494Z,14.80
2022-10-06T05:02:49.423Z,14.79
2022-10-06T05:03:49.410Z,14.80
2022-10-06T05:04:49.395Z,14.80
2022-10-06T05:05:49.385Z,14.80
2022-10-06T05:06:49.383Z,14.79
2022-10-06T05:07:49.361Z,14.79
2022-10-06T05:08:49.346Z,14.80
2022-10-06T05:09:49.346Z,14.79
2022-10-06T05:10:49.317Z,14.79
2022-10-06T05:11:49.305Z,14.77
2022-10-06T05:12:49.293Z,14.80
2022-10-06T05:13:49.279Z,14.79
2022-10-06T05:14:49.311Z,14.77
2022-10-06T05:15:49.252Z,14.80
2022-10-06T05:16:49.343Z,14.80
2022-10-06T05:17:49.225Z,14.79
2022-10-06T05:18:49.212Z,14.79
2022-10-06T05:19:49.199Z,14.77
2022-10-06T05:20:49.185Z,14.79
2022-10-06T05:21:49.172Z,14.80
2022-10-06T05:22:49.158Z,14.79
2022-10-06T05:23:49.147Z,14.79
2022-10-06T05:24:49.159Z,14.79
2022-10-06T05:25:49.121Z,14.80
2022-10-06T05:26:49.106Z,14.79
2022-10-06T05:27:49.094Z,14.79
2022-10-06T05:28:49.134Z,14.80
2022-10-06T05:29:49.067Z,14.79
2022-10-06T05:30:49.131Z,14.77
2022-10-06T05:31:49.082Z,14.77
2022-10-06T05:32:49.026Z,14.77
2022-10-06T05:33:49.021Z,14.79
2022-10-06T05:34:49.001Z,14.79
2022-10-06T05:35:48.988Z,14.77
2022-10-06T05:36:48.975Z,14.79
2022-10-06T05:37:48.962Z,14.79
2022-10-06T05:38:48.950Z,14.77
2022-10-06T05:39:48.936Z,14.75
2022-10-06T05:40:48.921Z,14.77
2022-10-06T05:41:48.912Z,14.75
2022-10-06T05:42:48.895Z,14.77
2022-10-06T05:43:48.885Z,14.75
2022-10-06T05:44:48.867Z,14.77
2022-10-06T05:45:48.892Z,14.75
2022-10-06T05:46:48.918Z,14.77
2022-10-06T05:47:48.830Z,14.77
2022-10-06T05:48:48.815Z,14.77
2022-10-06T05:49:48.803Z,14.77
2022-10-06T05:50:48.789Z,14.77
2022-10-06T05:51:48.775Z,14.75
2022-10-06T05:52:48.763Z,14.75
2022-10-06T05:53:48.751Z,14.75
2022-10-06T05:54:48.739Z,14.77
2022-10-06T05:55:48.724Z,14.77
2022-10-06T05:56:48.711Z,14.77
2022-10-06T05:57:48.698Z,14.75
2022-10-06T05:58:48.683Z,14.75
2022-10-06T05:59:48.673Z,14.77
2022-10-06T06:00:48.656Z,14.77
2022-10-06T06:01:48.841Z,14.74
2022-10-06T06:02:48.717Z,14.75
2022-10-06T06:03:48.617Z,14.75
2022-10-06T06:04:48.602Z,14.75
2022-10-06T06:05:48.592Z,14.75
2022-10-06T06:06:48.582Z,14.75
2022-10-06T06:07:48.567Z,14.77
2022-10-06T06:08:48.550Z,14.75
2022-10-06T06:09:48.538Z,14.77
2022-10-06T06:10:48.523Z,14.77
2022-10-06T06:11:48.512Z,14.77
2022-10-06T06:12:48.498Z,14.77
2022-10-06T06:13:48.486Z,14.79
2022-10-06T06:14:48.471Z,14.79
2022-10-06T06:15:48.459Z,14.75
2022-10-06T06:16:48.485Z,14.77
2022-10-06T06:17:48.433Z,14.77
2022-10-06T06:18:48.441Z,14.75
2022-10-06T06:19:48.405Z,14.79
2022-10-06T06:20:48.391Z,14.77
2022-10-06T06:21:48.380Z,14.75
2022-10-06T06:22:48.364Z,14.77
2022-10-06T06:23:48.352Z,14.79
2022-10-06T06:24:48.339Z,14.79
2022-10-06T06:25:48.328Z,14.77
2022-10-06T06:26:48.313Z,14.77
2022-10-06T06:27:48.302Z,14.77
2022-10-06T06:28:48.357Z,14.79
2022-10-06T06:29:48.275Z,14.79
2022-10-06T06:30:48.327Z,14.77
2022-10-06T06:31:48.326Z,14.79
2022-10-06T06:32:48.234Z,14.79
2022-10-06T06:33:48.220Z,14.79
2022-10-06T06:34:48.228Z,14.79
2022-10-06T06:35:48.194Z,14.80
2022-10-06T06:36:48.185Z,14.80
2022-10-06T06:37:48.168Z,14.79
2022-10-06T06:38:48.151Z,14.77
2022-10-06T06:39:48.141Z,14.79
2022-10-06T06:40:48.128Z,14.79
2022-10-06T06:41:48.115Z,14.79
2022-10-06T06:42:52.907Z,14.79
2022-10-06T06:43:48.089Z,14.79
2022-10-06T06:44:48.072Z,14.79
2022-10-06T06:45:48.080Z,14.80
2022-10-06T06:46:48.044Z,14.80
2022-10-06T06:47:48.039Z,14.79
2022-10-06T06:48:48.020Z,14.82
2022-10-06T06:49:48.008Z,14.82
2022-10-06T06:50:48.015Z,14.80
2022-10-06T06:51:47.980Z,14.82
2022-10-06T06:52:47.964Z,14.82
2022-10-06T06:53:47.954Z,14.80
2022-10-06T06:54:47.941Z,14.80
2022-10-06T06:55:47.927Z,14.80
2022-10-06T06:56:47.912Z,14.82
2022-10-06T06:57:47.901Z,14.80
2022-10-06T06:58:47.886Z,14.82
2022-10-06T06:59:47.875Z,14.82
2022-10-06T07:00:47.859Z,14.82
2022-10-06T07:01:47.960Z,14.80
2022-10-06T07:02:47.832Z,14.80
2022-10-06T07:04:02.352Z,14.82
2022-10-06T07:04:49.806Z,14.80
2022-10-06T07:05:47.795Z,14.82
2022-10-06T07:06:47.886Z,14.82
2022-10-06T07:07:47.767Z,14.82
2022-10-06T07:08:47.754Z,14.82
2022-10-06T07:09:47.744Z,14.80
2022-10-06T07:10:47.727Z,14.80
2022-10-06T07:11:47.717Z,14.82
2022-10-06T07:12:47.700Z,14.82
2022-10-06T07:13:47.689Z,14.82
2022-10-06T07:14:47.673Z,14.83
2022-10-06T07:15:47.684Z,14.82
2022-10-06T07:16:47.647Z,14.83
2022-10-06T07:17:47.637Z,14.83
2022-10-06T07:18:47.621Z,14.83
2022-10-06T07:19:47.608Z,14.83
2022-10-06T07:20:47.597Z,14.82
2022-10-06T07:21:47.584Z,14.82
2022-10-06T07:22:47.640Z,14.85
2022-10-06T07:23:47.557Z,14.83
2022-10-06T07:24:47.540Z,14.86
2022-10-06T07:25:47.529Z,14.83
2022-10-06T07:26:47.513Z,14.85
2022-10-06T07:27:47.508Z,14.85
2022-10-06T07:28:47.490Z,14.85
2022-10-06T07:29:47.477Z,14.83
2022-10-06T07:30:47.461Z,14.82
2022-10-06T07:31:47.451Z,14.83
2022-10-06T07:32:47.437Z,14.85
2022-10-06T07:33:47.424Z,14.85
2022-10-06T07:34:47.411Z,14.85
2022-10-06T07:35:47.397Z,14.83
2022-10-06T07:36:47.384Z,14.82
2022-10-06T07:37:47.371Z,14.83
2022-10-06T07:38:47.379Z,14.82
2022-10-06T07:39:47.346Z,14.83
2022-10-06T07:41:14.568Z,14.83
2022-10-06T07:41:48.359Z,14.85
2022-10-06T07:42:47.303Z,14.83
2022-10-06T07:43:47.293Z,14.85
2022-10-06T07:44:47.277Z,14.85
2022-10-06T07:45:47.334Z,14.85
2022-10-06T07:46:47.250Z,14.83
2022-10-06T07:47:47.238Z,14.85
2022-10-06T07:48:47.224Z,14.86
2022-10-06T07:49:47.243Z,14.86
2022-10-06T07:50:47.199Z,14.86
2022-10-06T07:51:47.187Z,14.86
2022-10-06T07:52:47.171Z,14.86
2022-10-06T07:53:47.158Z,14.86
2022-10-06T07:54:47.181Z,14.86
2022-10-06T07:55:47.132Z,14.86
2022-10-06T07:56:47.117Z,14.86
2022-10-06T07:57:47.106Z,14.87
2022-10-06T07:58:47.091Z,14.87
2022-10-06T07:59:47.079Z,14.87
2022-10-06T08:00:47.067Z,14.87
2022-10-06T08:01:47.119Z,14.86
2022-10-06T08:02:47.075Z,14.87
2022-10-06T08:03:47.026Z,14.87
2022-10-06T08:04:47.011Z,14.89
2022-10-06T08:05:47.002Z,14.89
2022-10-06T08:06:46.985Z,14.90
2022-10-06T08:07:46.971Z,14.92
2022-10-06T08:08:51.724Z,14.92
2022-10-06T08:09:46.947Z,14.93
2022-10-06T08:10:46.989Z,14.93
2022-10-06T08:11:46.921Z,14.93
2022-10-06T08:13:46.894Z,14.97
2022-10-06T08:14:46.881Z,14.97
2022-10-06T08:15:46.903Z,14.98
2022-10-06T08:16:46.852Z,15.01
2022-10-06T08:17:46.839Z,14.98
2022-10-06T08:18:47.399Z,15.00
2022-10-06T08:19:46.816Z,15.01
2022-10-06T08:20:46.799Z,15.01
2022-10-06T08:21:46.797Z,15.01
2022-10-06T08:22:46.773Z,15.00
2022-10-06T08:23:46.762Z,15.00
2022-10-06T08:25:08.678Z,15.00
2022-10-06T08:25:47.772Z,14.98
2022-10-06T08:26:46.747Z,14.98
2022-10-06T08:27:50.088Z,14.98
2022-10-06T08:28:47.733Z,14.97
2022-10-06T08:29:46.682Z,15.00
2022-10-06T08:30:46.667Z,15.00
2022-10-06T08:31:46.777Z,15.00
2022-10-06T08:32:46.639Z,15.00
2022-10-06T08:33:46.633Z,15.00
2022-10-06T08:34:46.613Z,14.98
2022-10-06T08:35:46.603Z,14.97
2022-10-06T08:37:08.634Z,14.97
2022-10-06T08:37:47.615Z,14.98
2022-10-06T08:38:46.561Z,14.98
2022-10-06T08:39:46.562Z,14.98
2022-10-06T08:40:46.538Z,15.00
2022-10-06T08:41:46.521Z,14.98
2022-10-06T08:42:46.531Z,15.00
2022-10-06T08:43:46.497Z,14.98
2022-10-06T08:44:46.481Z,14.97
2022-10-06T08:45:46.576Z,15.00
2022-10-06T08:46:46.456Z,15.00
2022-10-06T08:47:46.442Z,15.00
2022-10-06T08:48:46.427Z,15.00
2022-10-06T08:49:46.419Z,14.98
2022-10-06T08:50:46.396Z,15.00
2022-10-06T08:51:46.389Z,15.01
2022-10-06T08:52:46.397Z,14.98
2022-10-06T08:53:46.362Z,14.98
2022-10-06T08:54:46.348Z,14.98
2022-10-06T08:55:46.336Z,15.00
2022-10-06T08:56:46.322Z,15.00
2022-10-06T08:57:46.310Z,14.98
2022-10-06T08:58:46.372Z,14.98
2022-10-06T08:59:46.286Z,15.00
2022-10-06T09:00:46.267Z,15.01
2022-10-06T09:01:46.370Z,15.01
2022-10-06T09:02:46.298Z,15.01
2022-10-06T09:03:46.228Z,15.02
2022-10-06T09:04:46.216Z,15.04
2022-10-06T09:05:46.204Z,15.02
2022-10-06T09:06:46.189Z,15.07
2022-10-06T09:07:46.175Z,15.05
2022-10-06T09:08:46.163Z,15.05
2022-10-06T09:09:46.146Z,15.05
2022-10-06T09:10:46.136Z,15.05
2022-10-06T09:11:46.122Z,15.08
2022-10-06T09:12:46.105Z,15.07
2022-10-06T09:13:46.092Z,15.07
2022-10-06T09:14:46.110Z,15.08
2022-10-06T09:15:46.110Z,15.07
2022-10-06T09:16:46.060Z,15.05
2022-10-06T09:17:46.048Z,15.07
2022-10-06T09:19:47.058Z,15.08
2022-10-06T09:20:46.006Z,15.10
2022-10-06T09:21:46.003Z,15.08
2022-10-06T09:22:45.976Z,15.08
2022-10-06T09:23:45.980Z,15.07
2022-10-06T09:24:47.482Z,15.07
2022-10-06T09:25:45.935Z,15.05
2022-10-06T09:26:45.926Z,15.05
2022-10-06T09:27:45.909Z,15.07
2022-10-06T09:28:45.972Z,15.07
2022-10-06T09:29:45.886Z,15.05
2022-10-06T09:30:45.897Z,15.05
2022-10-06T09:31:45.905Z,15.04
2022-10-06T09:32:45.845Z,15.04
2022-10-06T09:33:45.830Z,15.08
2022-10-06T09:34:45.819Z,15.07
2022-10-06T09:35:45.804Z,15.10
2022-10-06T09:36:45.794Z,15.08
2022-10-06T09:37:45.778Z,15.11
2022-10-06T09:38:45.771Z,15.10
2022-10-06T09:39:45.750Z,15.11
2022-10-06T09:40:45.739Z,15.10
2022-10-06T09:41:45.727Z,15.11
2022-10-06T09:42:45.711Z,15.11
2022-10-06T09:43:45.697Z,15.12
2022-10-06T09:44:45.688Z,15.12
2022-10-06T09:45:45.671Z,15.14
2022-10-06T09:46:45.686Z,15.14
2022-10-06T09:47:45.850Z,15.14
2022-10-06T09:48:45.633Z,15.14
2022-10-06T09:49:45.623Z,15.12
2022-10-06T09:50:45.606Z,15.12
2022-10-06T09:51:45.591Z,15.14
2022-10-06T09:52:45.579Z,15.12
2022-10-06T09:53:45.566Z,15.12
2022-10-06T09:54:45.552Z,15.14
2022-10-06T09:55:45.539Z,15.14
2022-10-06T09:56:45.525Z,15.14
2022-10-06T09:57:45.516Z,15.14
2022-10-06T09:58:45.500Z,15.14
2022-10-06T09:59:45.484Z,15.14
2022-10-06T10:00:45.507Z,15.14
2022-10-06T10:01:45.461Z,15.12
2022-10-06T10:02:45.500Z,15.14
2022-10-06T10:04:01.913Z,15.12
2022-10-06T10:04:51.378Z,15.12
2022-10-06T10:05:45.405Z,15.12
2022-10-06T10:06:45.392Z,15.12
2022-10-06T10:07:45.378Z,15.14
2022-10-06T10:08:45.367Z,15.12
2022-10-06T10:09:45.352Z,15.16
2022-10-06T10:10:45.339Z,15.14
2022-10-06T10:11:45.326Z,15.14
2022-10-06T10:12:45.314Z,15.16
2022-10-06T10:13:45.298Z,15.12
2022-10-06T10:14:45.285Z,15.12
2022-10-06T10:15:45.297Z,15.12
2022-10-06T10:16:47.666Z,15.12
2022-10-06T10:17:45.244Z,15.12
2022-10-06T10:18:45.258Z,15.14
2022-10-06T10:19:45.220Z,15.11
2022-10-06T10:20:45.210Z,15.12
2022-10-06T10:21:45.193Z,15.12
2022-10-06T10:22:45.182Z,15.12
2022-10-06T10:23:45.169Z,15.12
2022-10-06T10:24:45.155Z,15.11
2022-10-06T10:25:45.140Z,15.12
2022-10-06T10:26:45.123Z,15.11
2022-10-06T10:27:45.108Z,15.11
2022-10-06T10:28:45.139Z,15.11
2022-10-06T10:29:45.087Z,15.14
2022-10-06T10:30:45.077Z,15.12
2022-10-06T10:31:45.137Z,15.11
2022-10-06T10:32:45.049Z,15.12
2022-10-06T10:33:53.996Z,15.14
2022-10-06T10:34:46.085Z,15.10
2022-10-06T10:35:45.007Z,15.12
2022-10-06T10:36:44.996Z,15.12
2022-10-06T10:37:44.982Z,15.14
2022-10-06T10:38:44.968Z,15.14
2022-10-06T10:39:44.955Z,15.16
2022-10-06T10:40:44.944Z,15.14
2022-10-06T10:41:44.929Z,15.14
2022-10-06T10:42:44.916Z,15.18
2022-10-06T10:43:44.901Z,15.16
2022-10-06T10:44:44.898Z,15.19
2022-10-06T10:45:44.876Z,15.19
2022-10-06T10:46:45.012Z,15.19
2022-10-06T10:47:44.849Z,15.19
2022-10-06T10:48:44.837Z,15.20
2022-10-06T10:49:44.841Z,15.19
2022-10-06T10:50:44.837Z,15.19
2022-10-06T10:51:44.796Z,15.19
2022-10-06T10:52:44.783Z,15.20
2022-10-06T10:53:44.771Z,15.20
2022-10-06T10:54:44.759Z,15.19
2022-10-06T10:55:44.743Z,15.19
2022-10-06T10:56:44.736Z,15.20
2022-10-06T10:57:44.716Z,15.20
2022-10-06T10:58:44.705Z,15.23
2022-10-06T10:59:44.690Z,15.22
2022-10-06T11:00:44.718Z,15.23
2022-10-06T11:01:44.724Z,15.23
2022-10-06T11:02:44.653Z,15.23
2022-10-06T11:03:44.639Z,15.23
2022-10-06T11:04:44.625Z,15.22
2022-10-06T11:05:44.611Z,15.23
2022-10-06T11:06:44.626Z,15.25
2022-10-06T11:07:44.584Z,15.25
2022-10-06T11:08:44.571Z,15.25
2022-10-06T11:09:44.553Z,15.23
2022-10-06T11:10:44.546Z,15.25
2022-10-06T11:11:47.522Z,15.26
2022-10-06T11:12:45.562Z,15.25
2022-10-06T11:13:44.508Z,15.26
2022-10-06T11:14:44.493Z,15.26
2022-10-06T11:15:44.478Z,15.26
2022-10-06T11:16:44.465Z,15.26
2022-10-06T11:17:44.719Z,15.25
2022-10-06T11:18:44.443Z,15.26
2022-10-06T11:19:44.426Z,15.26
2022-10-06T11:20:44.414Z,15.27
2022-10-06T11:21:44.401Z,15.27
2022-10-06T11:22:44.415Z,15.27
2022-10-06T11:23:44.375Z,15.27
2022-10-06T11:24:44.363Z,15.27
2022-10-06T11:25:44.346Z,15.27
2022-10-06T11:26:44.337Z,15.26
2022-10-06T11:27:44.322Z,15.29
2022-10-06T11:28:44.386Z,15.29
2022-10-06T11:29:44.296Z,15.32
2022-10-06T11:30:44.282Z,15.34
2022-10-06T11:31:44.314Z,15.35
2022-10-06T11:32:44.255Z,15.34
2022-10-06T11:33:44.241Z,15.34
2022-10-06T11:34:44.229Z,15.34
2022-10-06T11:35:44.217Z,15.32
2022-10-06T11:36:44.204Z,15.32
2022-10-06T11:37:44.188Z,15.32
2022-10-06T11:38:44.199Z,15.34
2022-10-06T11:39:44.163Z,15.37
2022-10-06T11:40:44.151Z,15.35
2022-10-06T11:41:44.135Z,15.35
2022-10-06T11:42:44.125Z,15.35
2022-10-06T11:43:44.111Z,15.38
2022-10-06T11:44:44.100Z,15.45
2022-10-06T11:45:44.139Z,15.49
2022-10-06T11:46:45.204Z,15.49
2022-10-06T11:47:44.057Z,15.45
2022-10-06T11:48:44.046Z,15.45
2022-10-06T11:49:44.030Z,15.42
2022-10-06T11:50:44.018Z,15.41
2022-10-06T11:51:44.005Z,15.41
2022-10-06T11:52:43.991Z,15.40
2022-10-06T11:53:43.976Z,15.38
2022-10-06T11:54:43.987Z,15.38
2022-10-06T11:55:43.950Z,15.37
2022-10-06T11:56:43.948Z,15.37
2022-10-06T11:57:43.925Z,15.35
2022-10-06T11:58:43.958Z,15.35
2022-10-06T11:59:43.897Z,15.35
2022-10-06T12:00:43.886Z,15.35
2022-10-06T12:01:44.021Z,15.34
2022-10-06T12:02:44.044Z,15.32
2022-10-06T12:03:43.848Z,15.32
2022-10-06T12:04:43.834Z,15.32
2022-10-06T12:05:59.191Z,15.32
2022-10-06T12:06:44.844Z,15.35
2022-10-06T12:07:43.790Z,15.38
2022-10-06T12:08:43.779Z,15.41
2022-10-06T12:09:44.811Z,15.42
2022-10-06T12:10:43.813Z,15.56
2022-10-06T12:11:43.737Z,15.59
2022-10-06T12:12:43.725Z,15.54
2022-10-06T12:16:38.074Z,15.49
2022-10-06T12:17:05.986Z,15.48
2022-10-06T12:17:44.747Z,15.44
2022-10-06T12:18:43.648Z,15.42
2022-10-06T12:19:43.635Z,15.41
2022-10-06T12:20:43.620Z,15.41
2022-10-06T12:21:43.605Z,15.38
2022-10-06T12:22:43.596Z,15.38
2022-10-06T12:23:43.582Z,15.37
2022-10-06T12:24:43.567Z,15.37
2022-10-06T12:25:43.554Z,15.37
2022-10-06T12:26:43.567Z,15.35
2022-10-06T12:27:43.527Z,15.35
2022-10-06T12:28:43.788Z,15.37
2022-10-06T12:29:43.500Z,15.34
2022-10-06T12:30:43.607Z,15.34
2022-10-06T12:31:43.473Z,15.34
2022-10-06T12:32:43.465Z,15.32
2022-10-06T12:33:43.447Z,15.32
2022-10-06T12:34:43.446Z,15.34
2022-10-06T12:35:43.422Z,15.38
2022-10-06T12:36:45.172Z,15.41
2022-10-06T12:37:43.393Z,15.68
2022-10-06T12:38:43.382Z,15.75
2022-10-06T12:39:43.373Z,15.72
2022-10-06T12:40:43.359Z,15.70
2022-10-06T12:41:43.342Z,15.66
2022-10-06T12:42:43.369Z,15.64
2022-10-06T12:43:43.316Z,15.64
2022-10-06T12:44:43.303Z,15.63
2022-10-06T12:45:46.064Z,15.57
2022-10-06T12:46:43.400Z,15.57
2022-10-06T12:47:43.261Z,15.70
2022-10-06T12:48:43.251Z,15.79
2022-10-06T12:49:43.235Z,15.97
2022-10-06T12:50:43.225Z,16.00
2022-10-06T12:51:43.213Z,15.92
2022-10-06T12:52:43.197Z,15.84
2022-10-06T12:53:43.184Z,15.76
2022-10-06T12:54:43.172Z,15.68
2022-10-06T12:55:43.154Z,15.64
2022-10-06T12:56:43.161Z,15.61